sensor_id;sensor_type;location;lat;lon;timestamp;pressure;altitude;pressure_sealevel;temperature;humidity
18509;BME280;9383;50.928;12.116;2023-01-27T00:00:27;99280.34;;;-1.90;100.00
18509;BME280;9383;50.928;12.116;2023-01-27T00:02:54;99278.63;;;-1.90;100.00
18509;BME280;9383;50.928;12.116;2023-01-27T00:05:20;99290.75;;;-1.90;100.00
18509;BME280;9383;50.928;12.116;2023-01-27T00:07:47;99275.16;;;-1.90;100.00
18509;BME280;9383;50.928;12.116;2023-01-27T00:10:17;99279.50;;;-1.89;100.00
18509;BME280;9383;50.928;12.116;2023-01-27T00:12:46;99276.94;;;-1.88;100.00
18509;BME280;9383;50.928;12.116;2023-01-27T00:15:33;99286.50;;;-1.87;100.00
18509;BME280;9383;50.928;12.116;2023-01-27T00:18:00;99276.03;;;-1.90;100.00
18509;BME280;9383;50.928;12.116;2023-01-27T00:20:27;99276.13;;;-1.85;100.00
18509;BME280;9383;50.928;12.116;2023-01-27T00:23:21;99270.06;;;-1.86;100.00
18509;BME280;9383;50.928;12.116;2023-01-27T00:26:12;99276.16;;;-1.84;100.00
18509;BME280;9383;50.928;12.116;2023-01-27T00:28:41;99192.16;;;-2.27;100.00
18509;BME280;9383;50.928;12.116;2023-01-27T00:31:09;99269.25;;;-1.83;100.00
18509;BME280;9383;50.928;12.116;2023-01-27T00:33:55;99277.06;;;-1.83;100.00
18509;BME280;9383;50.928;12.116;2023-01-27T00:36:28;99275.31;;;-1.82;100.00
18509;BME280;9383;50.928;12.116;2023-01-27T00:38:55;99267.50;;;-1.82;100.00
18509;BME280;9383;50.928;12.116;2023-01-27T00:41:22;99268.41;;;-1.82;100.00
18509;BME280;9383;50.928;12.116;2023-01-27T00:43:52;99266.66;;;-1.81;100.00
18509;BME280;9383;50.928;12.116;2023-01-27T00:46:20;99274.50;;;-1.80;100.00
18509;BME280;9383;50.928;12.116;2023-01-27T00:48:47;99277.94;;;-1.81;100.00
18509;BME280;9383;50.928;12.116;2023-01-27T00:51:14;99264.13;;;-1.80;100.00
18509;BME280;9383;50.928;12.116;2023-01-27T00:53:41;99264.13;;;-1.80;100.00
18509;BME280;9383;50.928;12.116;2023-01-27T00:56:08;99264.97;;;-1.79;100.00
18509;BME280;9383;50.928;12.116;2023-01-27T00:58:35;99263.25;;;-1.79;100.00
18509;BME280;9383;50.928;12.116;2023-01-27T01:01:04;99273.66;;;-1.79;100.00
18509;BME280;9383;50.928;12.116;2023-01-27T01:03:32;99271.81;;;-1.85;100.00
18509;BME280;9383;50.928;12.116;2023-01-27T01:06:04;99266.72;;;-1.78;100.00
18509;BME280;9383;50.928;12.116;2023-01-27T01:08:33;99269.31;;;-1.78;100.00
18509;BME280;9383;50.928;12.116;2023-01-27T01:11:00;99288.41;;;-1.78;100.00
18509;BME280;9383;50.928;12.116;2023-01-27T01:13:27;99282.31;;;-1.78;100.00
18509;BME280;9383;50.928;12.116;2023-01-27T01:15:54;99284.91;;;-1.78;100.00
18509;BME280;9383;50.928;12.116;2023-01-27T01:18:21;99289.25;;;-1.77;100.00
18509;BME280;9383;50.928;12.116;2023-01-27T01:20:48;99285.81;;;-1.78;100.00
18509;BME280;9383;50.928;12.116;2023-01-27T01:23:15;99278.00;;;-1.78;100.00
18509;BME280;9383;50.928;12.116;2023-01-27T01:25:41;99281.47;;;-1.77;100.00
18509;BME280;9383;50.928;12.116;2023-01-27T01:28:11;99281.50;;;-1.76;100.00
18509;BME280;9383;50.928;12.116;2023-01-27T01:30:38;99270.25;;;-1.76;100.00
18509;BME280;9383;50.928;12.116;2023-01-27T01:33:04;99273.75;;;-1.74;100.00
18509;BME280;9383;50.928;12.116;2023-01-27T01:35:35;99271.16;;;-1.74;100.00
18509;BME280;9383;50.928;12.116;2023-01-27T01:38:02;99269.41;;;-1.74;100.00
18509;BME280;9383;50.928;12.116;2023-01-27T01:40:28;99262.50;;;-1.73;100.00
18509;BME280;9383;50.928;12.116;2023-01-27T01:43:00;99270.31;;;-1.72;100.00
18509;BME280;9383;50.928;12.116;2023-01-27T01:48:18;99259.09;;;-1.71;100.00
18509;BME280;9383;50.928;12.116;2023-01-27T01:50:57;99285.97;;;-1.70;100.00
18509;BME280;9383;50.928;12.116;2023-01-27T01:53:41;99279.06;;;-1.70;100.00
18509;BME280;9383;50.928;12.116;2023-01-27T01:56:16;99277.31;;;-1.69;100.00
18509;BME280;9383;50.928;12.116;2023-01-27T01:58:43;99272.13;;;-1.69;100.00
18509;BME280;9383;50.928;12.116;2023-01-27T02:01:11;99262.63;;;-1.67;100.00
18509;BME280;9383;50.928;12.116;2023-01-27T02:03:40;99266.97;;;-1.66;100.00
18509;BME280;9383;50.928;12.116;2023-01-27T02:06:09;99260.91;;;-1.66;100.00
18509;BME280;9383;50.928;12.116;2023-01-27T02:08:41;99260.03;;;-1.67;100.00
18509;BME280;9383;50.928;12.116;2023-01-27T02:11:09;99265.22;;;-1.67;100.00
18509;BME280;9383;50.928;12.116;2023-01-27T02:13:37;99269.56;;;-1.67;100.00
18509;BME280;9383;50.928;12.116;2023-01-27T02:16:04;99263.47;;;-1.68;100.00
18509;BME280;9383;50.928;12.116;2023-01-27T02:18:31;99255.72;;;-1.66;100.00
18509;BME280;9383;50.928;12.116;2023-01-27T02:20:58;99254.81;;;-1.67;100.00
18509;BME280;9383;50.928;12.116;2023-01-27T02:23:48;99264.31;;;-1.69;100.00
18509;BME280;9383;50.928;12.116;2023-01-27T02:26:24;99259.97;;;-1.70;100.00
18509;BME280;9383;50.928;12.116;2023-01-27T02:28:58;99260.84;;;-1.70;100.00
18509;BME280;9383;50.928;12.116;2023-01-27T02:31:25;99259.13;;;-1.69;100.00
18509;BME280;9383;50.928;12.116;2023-01-27T02:33:55;99265.16;;;-1.70;100.00
18509;BME280;9383;50.928;12.116;2023-01-27T02:36:23;99263.41;;;-1.71;100.00
18509;BME280;9383;50.928;12.116;2023-01-27T02:38:55;99265.16;;;-1.70;100.00
18509;BME280;9383;50.928;12.116;2023-01-27T02:41:36;99272.16;;;-1.67;100.00
18509;BME280;9383;50.928;12.116;2023-01-27T02:44:05;99266.06;;;-1.68;100.00
18509;BME280;9383;50.928;12.116;2023-01-27T02:46:31;99268.66;;;-1.68;100.00
18509;BME280;9383;50.928;12.116;2023-01-27T02:48:58;99268.66;;;-1.68;100.00
18509;BME280;9383;50.928;12.116;2023-01-27T02:51:24;99272.16;;;-1.67;100.00
18509;BME280;9383;50.928;12.116;2023-01-27T02:53:51;99276.50;;;-1.66;100.00
18509;BME280;9383;50.928;12.116;2023-01-27T02:56:17;99278.25;;;-1.65;100.00
18509;BME280;9383;50.928;12.116;2023-01-27T02:58:44;99269.59;;;-1.64;100.00
18509;BME280;9383;50.928;12.116;2023-01-27T03:01:10;99285.22;;;-1.64;100.00
18509;BME280;9383;50.928;12.116;2023-01-27T03:03:37;99285.22;;;-1.64;100.00
18509;BME280;9383;50.928;12.116;2023-01-27T03:06:09;99294.72;;;-1.65;100.00
18509;BME280;9383;50.928;12.116;2023-01-27T03:08:36;99299.91;;;-1.65;100.00
18509;BME280;9383;50.928;12.116;2023-01-27T03:11:02;99285.16;;;-1.66;100.00
18509;BME280;9383;50.928;12.116;2023-01-27T03:13:29;99285.16;;;-1.67;100.00
18509;BME280;9383;50.928;12.116;2023-01-27T03:15:59;99291.22;;;-1.67;100.00
18509;BME280;9383;50.928;12.116;2023-01-27T03:18:46;99295.56;;;-1.66;100.00
18509;BME280;9383;50.928;12.116;2023-01-27T03:21:16;99299.06;;;-1.65;100.00
18509;BME280;9383;50.928;12.116;2023-01-27T03:23:44;99304.22;;;-1.67;100.00
18509;BME280;9383;50.928;12.116;2023-01-27T03:26:14;99300.75;;;-1.67;100.00
18509;BME280;9383;50.928;12.116;2023-01-27T03:28:41;99294.66;;;-1.68;100.00
18509;BME280;9383;50.928;12.116;2023-01-27T03:31:09;99302.44;;;-1.70;100.00
18509;BME280;9383;50.928;12.116;2023-01-27T03:33:45;99294.59;;;-1.71;100.00
18509;BME280;9383;50.928;12.116;2023-01-27T03:36:14;99288.50;;;-1.73;100.00
18509;BME280;9383;50.928;12.116;2023-01-27T03:38:59;99304.94;;;-1.74;100.00
18509;BME280;9383;50.928;12.116;2023-01-27T03:41:44;99311.84;;;-1.76;100.00
18509;BME280;9383;50.928;12.116;2023-01-27T03:44:29;99314.44;;;-1.76;100.00
18509;BME280;9383;50.928;12.116;2023-01-27T03:47:15;99315.25;;;-1.77;100.00
18509;BME280;9383;50.928;12.116;2023-01-27T03:49:41;99323.94;;;-1.77;100.00
18509;BME280;9383;50.928;12.116;2023-01-27T03:52:08;99323.91;;;-1.78;100.00
18509;BME280;9383;50.928;12.116;2023-01-27T03:54:35;99322.16;;;-1.79;100.00
18509;BME280;9383;50.928;12.116;2023-01-27T03:57:01;99318.66;;;-1.81;100.00
18509;BME280;9383;50.928;12.116;2023-01-27T03:59:31;99325.59;;;-1.80;100.00
18509;BME280;9383;50.928;12.116;2023-01-27T04:02:01;99321.31;;;-1.78;100.00
18509;BME280;9383;50.928;12.116;2023-01-27T04:04:46;99317.84;;;-1.77;100.00
18509;BME280;9383;50.928;12.116;2023-01-27T04:07:34;99323.91;;;-1.78;100.00
18509;BME280;9383;50.928;12.116;2023-01-27T04:10:02;99327.34;;;-1.79;100.00
18509;BME280;9383;50.928;12.116;2023-01-27T04:12:29;99321.25;;;-1.81;100.00
18509;BME280;9383;50.928;12.116;2023-01-27T04:14:55;99318.66;;;-1.81;100.00
18509;BME280;9383;50.928;12.116;2023-01-27T04:17:22;99318.66;;;-1.81;100.00
18509;BME280;9383;50.928;12.116;2023-01-27T04:19:48;99312.59;;;-1.80;100.00
18509;BME280;9383;50.928;12.116;2023-01-27T04:22:15;99322.16;;;-1.79;100.00
18509;BME280;9383;50.928;12.116;2023-01-27T04:24:42;99311.75;;;-1.79;100.00
18509;BME280;9383;50.928;12.116;2023-01-27T04:27:11;99315.25;;;-1.79;100.00
18509;BME280;9383;50.928;12.116;2023-01-27T04:29:39;99317.00;;;-1.78;100.00
18509;BME280;9383;50.928;12.116;2023-01-27T04:32:08;99325.59;;;-1.80;100.00
18509;BME280;9383;50.928;12.116;2023-01-27T04:34:35;99312.59;;;-1.82;100.00
18509;BME280;9383;50.928;12.116;2023-01-27T04:37:02;99318.63;;;-1.83;100.00
18509;BME280;9383;50.928;12.116;2023-01-27T04:39:30;99324.69;;;-1.82;100.00
18509;BME280;9383;50.928;12.116;2023-01-27T04:41:56;99329.81;;;-1.86;100.00
18509;BME280;9383;50.928;12.116;2023-01-27T04:44:23;99327.22;;;-1.86;100.00
18509;BME280;9383;50.928;12.116;2023-01-27T04:46:50;99328.97;;;-1.85;100.00
18509;BME280;9383;50.928;12.116;2023-01-27T04:49:17;99337.63;;;-1.86;100.00
18509;BME280;9383;50.928;12.116;2023-01-27T04:51:45;99332.44;;;-1.86;100.00
18509;BME280;9383;50.928;12.116;2023-01-27T04:54:11;99324.63;;;-1.86;100.00
18509;BME280;9383;50.928;12.116;2023-01-27T04:56:40;99328.06;;;-1.87;100.00
18509;BME280;9383;50.928;12.116;2023-01-27T04:59:10;99339.31;;;-1.88;100.00
18509;BME280;9383;50.928;12.116;2023-01-27T05:01:37;99341.91;;;-1.88;100.00
18509;BME280;9383;50.928;12.116;2023-01-27T05:04:04;99340.97;;;-1.90;100.00
18509;BME280;9383;50.928;12.116;2023-01-27T05:06:31;99341.81;;;-1.91;100.00
18509;BME280;9383;50.928;12.116;2023-01-27T05:08:57;99338.38;;;-1.91;100.00
18509;BME280;9383;50.928;12.116;2023-01-27T05:11:24;99340.97;;;-1.91;100.00
18509;BME280;9383;50.928;12.116;2023-01-27T05:13:50;99343.56;;;-1.90;100.00
18509;BME280;9383;50.928;12.116;2023-01-27T05:16:19;99335.78;;;-1.91;100.00
18509;BME280;9383;50.928;12.116;2023-01-27T05:18:47;99347.88;;;-1.92;100.00
18509;BME280;9383;50.928;12.116;2023-01-27T05:21:17;99338.31;;;-1.93;100.00
18509;BME280;9383;50.928;12.116;2023-01-27T05:23:44;99350.41;;;-1.95;100.00
18509;BME280;9383;50.928;12.116;2023-01-27T05:26:13;99346.06;;;-1.96;100.00
18509;BME280;9383;50.928;12.116;2023-01-27T05:28:42;99341.66;;;-1.99;100.00
18509;BME280;9383;50.928;12.116;2023-01-27T05:31:14;99352.94;;;-1.98;100.00
18509;BME280;9383;50.928;12.116;2023-01-27T05:33:41;99345.09;;;-2.00;100.00
18509;BME280;9383;50.928;12.116;2023-01-27T05:36:14;99350.31;;;-2.00;100.00
18509;BME280;9383;50.928;12.116;2023-01-27T05:38:41;99349.44;;;-2.00;100.00
18509;BME280;9383;50.928;12.116;2023-01-27T05:41:09;99356.38;;;-1.99;100.00
18509;BME280;9383;50.928;12.116;2023-01-27T05:43:38;99351.19;;;-1.99;100.00
18509;BME280;9383;50.928;12.116;2023-01-27T05:46:07;99360.75;;;-1.98;100.00
18509;BME280;9383;50.928;12.116;2023-01-27T05:48:37;99358.13;;;-1.98;100.00
18509;BME280;9383;50.928;12.116;2023-01-27T05:51:05;99367.63;;;-1.99;100.00
18509;BME280;9383;50.928;12.116;2023-01-27T05:53:32;99364.13;;;-2.01;100.00
18509;BME280;9383;50.928;12.116;2023-01-27T05:55:59;99369.31;;;-2.02;100.00
18509;BME280;9383;50.928;12.116;2023-01-27T05:58:26;99364.03;;;-2.05;100.00
18509;BME280;9383;50.928;12.116;2023-01-27T06:01:07;99374.41;;;-2.05;100.00
18509;BME280;9383;50.928;12.116;2023-01-27T06:03:34;99372.66;;;-2.06;100.00
18509;BME280;9383;50.928;12.116;2023-01-27T06:06:01;99378.66;;;-2.09;100.00
18509;BME280;9383;50.928;12.116;2023-01-27T06:08:29;99372.66;;;-2.08;100.00
18509;BME280;9383;50.928;12.116;2023-01-27T06:10:55;99384.75;;;-2.08;100.00
18509;BME280;9383;50.928;12.116;2023-01-27T06:13:22;99376.06;;;-2.09;100.00
18509;BME280;9383;50.928;12.116;2023-01-27T06:15:49;99376.03;;;-2.10;100.00
18509;BME280;9383;50.928;12.116;2023-01-27T06:18:17;99372.59;;;-2.09;100.00
18509;BME280;9383;50.928;12.116;2023-01-27T06:20:45;99376.06;;;-2.09;100.00
18509;BME280;9383;50.928;12.116;2023-01-27T06:23:13;99388.19;;;-2.09;100.00
18509;BME280;9383;50.928;12.116;2023-01-27T06:25:43;99388.13;;;-2.11;100.00
18509;BME280;9383;50.928;12.116;2023-01-27T06:28:10;99394.22;;;-2.10;100.00
18509;BME280;9383;50.928;12.116;2023-01-27T06:30:38;99393.34;;;-2.11;100.00
18509;BME280;9383;50.928;12.116;2023-01-27T06:33:05;99394.22;;;-2.10;100.00
18509;BME280;9383;50.928;12.116;2023-01-27T06:35:33;99401.19;;;-2.09;100.00
18509;BME280;9383;50.928;12.116;2023-01-27T06:38:01;99405.53;;;-2.08;100.00
18509;BME280;9383;50.928;12.116;2023-01-27T06:40:29;99402.94;;;-2.08;100.00
18509;BME280;9383;50.928;12.116;2023-01-27T06:42:58;99402.94;;;-2.08;100.00
18509;BME280;9383;50.928;12.116;2023-01-27T06:45:24;99402.94;;;-2.08;100.00
18509;BME280;9383;50.928;12.116;2023-01-27T06:47:57;99405.53;;;-2.08;100.00
18509;BME280;9383;50.928;12.116;2023-01-27T06:50:25;99412.41;;;-2.10;100.00
18509;BME280;9383;50.928;12.116;2023-01-27T06:52:52;99416.72;;;-2.11;100.00
18509;BME280;9383;50.928;12.116;2023-01-27T06:55:24;99415.84;;;-2.12;100.00
18509;BME280;9383;50.928;12.116;2023-01-27T06:57:50;99423.66;;;-2.12;100.00
18509;BME280;9383;50.928;12.116;2023-01-27T07:00:17;99417.56;;;-2.12;100.00
18509;BME280;9383;50.928;12.116;2023-01-27T07:02:44;99420.19;;;-2.10;100.00
18509;BME280;9383;50.928;12.116;2023-01-27T07:05:11;99421.06;;;-2.10;100.00
18509;BME280;9383;50.928;12.116;2023-01-27T07:07:38;99424.50;;;-2.11;100.00
18509;BME280;9383;50.928;12.116;2023-01-27T07:10:06;99421.06;;;-2.10;100.00
18509;BME280;9383;50.928;12.116;2023-01-27T07:12:33;99433.22;;;-2.09;100.00
18509;BME280;9383;50.928;12.116;2023-01-27T07:15:08;99430.59;;;-2.09;100.00
18509;BME280;9383;50.928;12.116;2023-01-27T07:17:35;99430.66;;;-2.07;100.00
18509;BME280;9383;50.928;12.116;2023-01-27T07:20:02;99425.41;;;-2.09;100.00
18509;BME280;9383;50.928;12.116;2023-01-27T07:22:29;99428.91;;;-2.08;100.00
18509;BME280;9383;50.928;12.116;2023-01-27T07:24:56;99427.22;;;-2.06;100.00
18509;BME280;9383;50.928;12.116;2023-01-27T07:27:23;99422.91;;;-2.06;100.00
18509;BME280;9383;50.928;12.116;2023-01-27T07:29:50;99423.78;;;-2.05;100.00
18509;BME280;9383;50.928;12.116;2023-01-27T07:32:17;99428.13;;;-2.04;100.00
18509;BME280;9383;50.928;12.116;2023-01-27T07:34:43;99431.56;;;-2.05;100.00
18509;BME280;9383;50.928;12.116;2023-01-27T07:37:10;99431.56;;;-2.05;100.00
18509;BME280;9383;50.928;12.116;2023-01-27T07:39:37;99432.47;;;-2.05;100.00
18509;BME280;9383;50.928;12.116;2023-01-27T07:42:04;99432.41;;;-2.06;100.00
18509;BME280;9383;50.928;12.116;2023-01-27T07:44:32;99436.75;;;-2.07;100.00
18509;BME280;9383;50.928;12.116;2023-01-27T07:46:59;99440.19;;;-2.08;100.00
18509;BME280;9383;50.928;12.116;2023-01-27T07:49:26;99451.44;;;-2.07;100.00
18509;BME280;9383;50.928;12.116;2023-01-27T07:51:52;99454.94;;;-2.05;100.00
18509;BME280;9383;50.928;12.116;2023-01-27T07:54:19;99449.75;;;-2.05;100.00
18509;BME280;9383;50.928;12.116;2023-01-27T07:56:46;99455.00;;;-2.04;100.00
18509;BME280;9383;50.928;12.116;2023-01-27T07:59:12;99453.25;;;-2.03;100.00
18509;BME280;9383;50.928;12.116;2023-01-27T08:01:39;99454.16;;;-2.03;100.00
18509;BME280;9383;50.928;12.116;2023-01-27T08:04:07;99459.41;;;-2.01;100.00
18509;BME280;9383;50.928;12.116;2023-01-27T08:06:33;99471.56;;;-1.99;100.00
18509;BME280;9383;50.928;12.116;2023-01-27T08:09:00;99463.81;;;-1.97;100.00
18509;BME280;9383;50.928;12.116;2023-01-27T08:11:26;99463.88;;;-1.94;100.00
18509;BME280;9383;50.928;12.116;2023-01-27T08:13:53;99470.91;;;-1.90;100.00
18509;BME280;9383;50.928;12.116;2023-01-27T08:16:19;99473.56;;;-1.88;100.00
18509;BME280;9383;50.928;12.116;2023-01-27T08:18:46;99471.84;;;-1.86;100.00
18509;BME280;9383;50.928;12.116;2023-01-27T08:21:14;99472.78;;;-1.84;100.00
18509;BME280;9383;50.928;12.116;2023-01-27T08:23:40;99480.66;;;-1.81;100.00
18509;BME280;9383;50.928;12.116;2023-01-27T08:26:07;99491.13;;;-1.78;100.00
18509;BME280;9383;50.928;12.116;2023-01-27T08:28:35;99476.50;;;-1.74;100.00
18509;BME280;9383;50.928;12.116;2023-01-27T08:31:11;99480.91;;;-1.70;100.00
18509;BME280;9383;50.928;12.116;2023-01-27T08:33:39;99473.16;;;-1.67;100.00
18509;BME280;9383;50.928;12.116;2023-01-27T08:36:08;99480.16;;;-1.64;100.00
18509;BME280;9383;50.928;12.116;2023-01-27T08:38:36;99480.28;;;-1.60;100.00
18509;BME280;9383;50.928;12.116;2023-01-27T08:41:08;99477.78;;;-1.55;100.00
18509;BME280;9383;50.928;12.116;2023-01-27T08:43:35;99483.94;;;-1.51;100.00
18509;BME280;9383;50.928;12.116;2023-01-27T08:46:02;99488.38;;;-1.46;100.00
18509;BME280;9383;50.928;12.116;2023-01-27T08:48:29;99493.69;;;-1.41;100.00
18509;BME280;9383;50.928;12.116;2023-01-27T08:50:57;99494.69;;;-1.36;100.00
18509;BME280;9383;50.928;12.116;2023-01-27T08:53:24;99502.59;;;-1.30;100.00
18509;BME280;9383;50.928;12.116;2023-01-27T08:55:52;99494.91;;;-1.25;100.00
18509;BME280;9383;50.928;12.116;2023-01-27T08:58:22;99502.00;;;-1.18;100.00
18509;BME280;9383;50.928;12.116;2023-01-27T09:00:49;99496.03;;;-1.14;100.00
18509;BME280;9383;50.928;12.116;2023-01-27T09:03:15;99497.94;;;-1.05;100.00
18509;BME280;9383;50.928;12.116;2023-01-27T09:05:42;99508.47;;;-0.98;100.00
18509;BME280;9383;50.928;12.116;2023-01-27T09:08:09;99512.09;;;-0.92;100.00
18509;BME280;9383;50.928;12.116;2023-01-27T09:10:40;99489.78;;;-0.80;100.00
18509;BME280;9383;50.928;12.116;2023-01-27T09:13:07;99488.25;;;-0.69;100.00
18509;BME280;9383;50.928;12.116;2023-01-27T09:15:35;99497.13;;;-0.58;100.00
18509;BME280;9383;50.928;12.116;2023-01-27T09:18:22;99496.50;;;-0.46;100.00
18509;BME280;9383;50.928;12.116;2023-01-27T09:20:48;99501.88;;;-0.36;100.00
18509;BME280;9383;50.928;12.116;2023-01-27T09:23:15;99492.47;;;-0.28;100.00
18509;BME280;9383;50.928;12.116;2023-01-27T09:25:41;99497.03;;;-0.15;100.00
18509;BME280;9383;50.928;12.116;2023-01-27T09:28:08;99503.31;;;-0.03;100.00
18509;BME280;9383;50.928;12.116;2023-01-27T09:30:43;99504.38;;;0.08;100.00
18509;BME280;9383;50.928;12.116;2023-01-27T09:33:11;99507.19;;;0.19;100.00
18509;BME280;9383;50.928;12.116;2023-01-27T09:36:03;99512.50;;;0.27;100.00
18509;BME280;9383;50.928;12.116;2023-01-27T09:38:35;99510.03;;;0.35;100.00
18509;BME280;9383;50.928;12.116;2023-01-27T09:49:48;99508.66;;;0.60;100.00
18509;BME280;9383;50.928;12.116;2023-01-27T09:52:42;99500.03;;;0.66;100.00
18509;BME280;9383;50.928;12.116;2023-01-27T10:02:09;99506.31;;;0.80;100.00
18509;BME280;9383;50.928;12.116;2023-01-27T10:10:39;99506.38;;;0.83;100.00
18509;BME280;9383;50.928;12.116;2023-01-27T10:16:11;99501.22;;;0.90;100.00
18509;BME280;9383;50.928;12.116;2023-01-27T10:26:49;99510.06;;;1.00;100.00
18509;BME280;9383;50.928;12.116;2023-01-27T10:29:25;99510.97;;;1.03;100.00
18509;BME280;9383;50.928;12.116;2023-01-27T10:34:34;99509.31;;;1.10;100.00
18509;BME280;9383;50.928;12.116;2023-01-27T10:53:39;99506.16;;;1.39;100.00
18509;BME280;9383;50.928;12.116;2023-01-27T10:56:21;99499.31;;;1.46;100.00
18509;BME280;9383;50.928;12.116;2023-01-27T11:02:05;99502.88;;;1.57;100.00
18509;BME280;9383;50.928;12.116;2023-01-27T11:04:45;99491.63;;;1.61;100.00
18509;BME280;9383;50.928;12.116;2023-01-27T11:07:20;99509.06;;;1.62;100.00
18509;BME280;9383;50.928;12.116;2023-01-27T11:10:02;99505.59;;;1.63;100.00
18509;BME280;9383;50.928;12.116;2023-01-27T11:12:37;99504.69;;;1.61;100.00
18509;BME280;9383;50.928;12.116;2023-01-27T11:15:20;99501.19;;;1.61;100.00
18509;BME280;9383;50.928;12.116;2023-01-27T11:18:07;99506.41;;;1.61;100.00
18509;BME280;9383;50.928;12.116;2023-01-27T11:20:43;99502.06;;;1.63;100.00
18509;BME280;9383;50.928;12.116;2023-01-27T11:23:31;99512.53;;;1.63;100.00
18509;BME280;9383;50.928;12.116;2023-01-27T11:31:51;99512.50;;;1.58;99.68
18509;BME280;9383;50.928;12.116;2023-01-27T11:37:31;99508.75;;;1.36;99.18
18509;BME280;9383;50.928;12.116;2023-01-27T11:39:59;99506.88;;;1.25;99.53
18509;BME280;9383;50.928;12.116;2023-01-27T11:42:30;99502.50;;;1.21;100.00
18509;BME280;9383;50.928;12.116;2023-01-27T11:44:59;99507.69;;;1.18;100.00
18509;BME280;9383;50.928;12.116;2023-01-27T11:47:36;99500.69;;;1.14;100.00
18509;BME280;9383;50.928;12.116;2023-01-27T11:50:04;99492.84;;;1.14;100.00
18509;BME280;9383;50.928;12.116;2023-01-27T11:52:32;99497.22;;;1.15;100.00
18509;BME280;9383;50.928;12.116;2023-01-27T11:57:34;99483.25;;;1.13;100.00
18509;BME280;9383;50.928;12.116;2023-01-27T12:00:10;99492.78;;;1.09;100.00
18509;BME280;9383;50.928;12.116;2023-01-27T12:02:46;99480.59;;;1.08;100.00
18509;BME280;9383;50.928;12.116;2023-01-27T12:05:40;99477.97;;;1.07;100.00
18509;BME280;9383;50.928;12.116;2023-01-27T12:08:08;99484.91;;;1.05;100.00
18509;BME280;9383;50.928;12.116;2023-01-27T12:10:41;99478.78;;;1.04;100.00
18509;BME280;9383;50.928;12.116;2023-01-27T12:13:15;99470.09;;;1.04;100.00
18509;BME280;9383;50.928;12.116;2023-01-27T12:18:17;99452.66;;;1.01;100.00
18509;BME280;9383;50.928;12.116;2023-01-27T12:20:49;99464.88;;;1.04;100.00
18509;BME280;9383;50.928;12.116;2023-01-27T12:23:27;99463.16;;;1.07;100.00
18509;BME280;9383;50.928;12.116;2023-01-27T12:26:06;99460.59;;;1.12;100.00
18509;BME280;9383;50.928;12.116;2023-01-27T12:28:49;99461.53;;;1.17;100.00
18509;BME280;9383;50.928;12.116;2023-01-27T12:31:26;99453.75;;;1.23;100.00
18509;BME280;9383;50.928;12.116;2023-01-27T12:34:02;99453.00;;;1.31;100.00
18509;BME280;9383;50.928;12.116;2023-01-27T12:36:38;99454.78;;;1.36;100.00
18509;BME280;9383;50.928;12.116;2023-01-27T12:39:04;99457.44;;;1.43;100.00
18509;BME280;9383;50.928;12.116;2023-01-27T12:41:35;99461.00;;;1.49;100.00
18509;BME280;9383;50.928;12.116;2023-01-27T12:44:17;99459.34;;;1.54;100.00
18509;BME280;9383;50.928;12.116;2023-01-27T12:49:36;99458.59;;;1.68;100.00
18509;BME280;9383;50.928;12.116;2023-01-27T12:52:05;99450.78;;;1.71;100.00
18509;BME280;9383;50.928;12.116;2023-01-27T12:54:34;99456.03;;;1.73;100.00
18509;BME280;9383;50.928;12.116;2023-01-27T12:57:03;99449.03;;;1.73;100.00
18509;BME280;9383;50.928;12.116;2023-01-27T12:59:31;99452.53;;;1.75;100.00
18509;BME280;9383;50.928;12.116;2023-01-27T13:02:20;99447.34;;;1.77;100.00
18509;BME280;9383;50.928;12.116;2023-01-27T13:04:55;99447.34;;;1.77;100.00
18509;BME280;9383;50.928;12.116;2023-01-27T13:07:26;99449.06;;;1.76;100.00
18509;BME280;9383;50.928;12.116;2023-01-27T13:10:05;99455.22;;;1.78;100.00
18509;BME280;9383;50.928;12.116;2023-01-27T13:12:49;99456.97;;;1.79;100.00
18509;BME280;9383;50.928;12.116;2023-01-27T13:15:22;99457.81;;;1.78;100.00
18509;BME280;9383;50.928;12.116;2023-01-27T13:17:51;99455.19;;;1.77;100.00
18509;BME280;9383;50.928;12.116;2023-01-27T13:20:29;99455.19;;;1.77;100.00
18509;BME280;9383;50.928;12.116;2023-01-27T13:23:00;99454.34;;;1.79;100.00
18509;BME280;9383;50.928;12.116;2023-01-27T13:25:38;99456.97;;;1.79;100.00
18509;BME280;9383;50.928;12.116;2023-01-27T13:28:10;99458.69;;;1.79;100.00
18509;BME280;9383;50.928;12.116;2023-01-27T13:30:43;99455.19;;;1.80;100.00
18509;BME280;9383;50.928;12.116;2023-01-27T13:33:21;99460.44;;;1.81;100.00
18509;BME280;9383;50.928;12.116;2023-01-27T13:44:50;99461.41;;;1.91;100.00
18509;BME280;9383;50.928;12.116;2023-01-27T13:47:29;99467.50;;;1.93;100.00
18509;BME280;9383;50.928;12.116;2023-01-27T13:52:52;99478.88;;;1.97;100.00
18509;BME280;9383;50.928;12.116;2023-01-27T13:58:42;99469.31;;;2.02;100.00
18509;BME280;9383;50.928;12.116;2023-01-27T14:01:14;99465.00;;;2.03;100.00
18509;BME280;9383;50.928;12.116;2023-01-27T14:07:00;99470.22;;;2.03;100.00
18509;BME280;9383;50.928;12.116;2023-01-27T14:20:48;99470.28;;;2.14;100.00
18509;BME280;9383;50.928;12.116;2023-01-27T14:23:32;99485.13;;;2.13;100.00
18509;BME280;9383;50.928;12.116;2023-01-27T14:26:35;99486.00;;;2.12;100.00
18509;BME280;9383;50.928;12.116;2023-01-27T14:37:28;99490.22;;;1.96;100.00
18509;BME280;9383;50.928;12.116;2023-01-27T14:40:22;99497.13;;;1.89;100.00
18509;BME280;9383;50.928;12.116;2023-01-27T14:45:37;99498.75;;;1.78;100.00
18509;BME280;9383;50.928;12.116;2023-01-27T14:48:48;99497.78;;;1.69;100.00
18509;BME280;9383;50.928;12.116;2023-01-27T14:54:27;99503.72;;;1.53;100.00
18509;BME280;9383;50.928;12.116;2023-01-27T14:57:29;99499.31;;;1.47;100.00
18509;BME280;9383;50.928;12.116;2023-01-27T15:00:14;99502.75;;;1.43;100.00
18509;BME280;9383;50.928;12.116;2023-01-27T15:08:52;99506.13;;;1.33;100.00
18509;BME280;9383;50.928;12.116;2023-01-27T15:11:46;99508.75;;;1.34;100.00
18509;BME280;9383;50.928;12.116;2023-01-27T15:14:42;99507.88;;;1.34;100.00
18509;BME280;9383;50.928;12.116;2023-01-27T15:17:30;99521.78;;;1.33;100.00